Time;durP1;ratioP1;P1;durP2;ratioP2;P2;SDS_P1;SDS_P2;PMS_P1;PMS_P2;Temp;Humidity;BMP_temperature;BMP_pressure;BME280_temperature;BME280_humidity;BME280_pressure;Samples;Min_cycle;Max_cycle;Signal;HPM_P1;HPM_P2
2022/04/26 03:38:29;;;;;;;;;16.25;13.50;;;;;-146.67;100.00;57155.34;5081221;28;61877;-79
2022/04/26 03:40:57;;;;;;;;;14.50;13.00;;;;;-146.67;100.00;57155.34;5081300;28;61974;-79
2022/04/26 03:43:22;;;;;;;;;18.25;13.75;;;;;-146.67;100.00;57155.34;5080136;28;61806;-79
2022/04/26 03:45:48;;;;;;;;;15.50;14.50;;;;;-146.67;100.00;57155.34;5081864;28;62426;-79
2022/04/26 03:48:14;;;;;;;;;18.25;13.75;;;;;-146.67;100.00;57155.34;5081585;28;61952;-79
2022/04/26 03:50:39;;;;;;;;;16.50;14.75;;;;;-146.67;100.00;57155.34;5081285;28;62577;-79
2022/04/26 03:53:05;;;;;;;;;14.25;12.75;;;;;-146.67;100.00;57155.34;5081318;27;61808;-79
2022/04/26 03:55:30;;;;;;;;;21.25;14.00;;;;;-146.67;100.00;57155.34;5080071;28;62106;-79
2022/04/26 03:57:57;;;;;;;;;15.50;14.00;;;;;-146.67;100.00;57155.34;5082083;28;61694;-79
2022/04/26 04:00:23;;;;;;;;;20.75;16.75;;;;;-146.67;100.00;57155.34;5080771;28;62599;-79
2022/04/26 04:02:49;;;;;;;;;17.00;15.50;;;;;-146.67;100.00;57155.34;5081614;28;61848;-79
2022/04/26 04:05:15;;;;;;;;;21.75;17.00;;;;;-146.67;100.00;57155.34;5080272;28;61987;-80
2022/04/26 04:07:40;;;;;;;;;20.50;16.75;;;;;-146.67;100.00;57155.34;5081198;28;61774;-79
2022/04/26 04:10:06;;;;;;;;;16.00;16.00;;;;;-146.67;100.00;57155.34;5080958;28;62731;-79
2022/04/26 04:12:31;;;;;;;;;24.50;15.75;;;;;-146.67;100.00;57155.34;5081156;28;61983;-79
2022/04/26 04:14:57;;;;;;;;;21.00;14.50;;;;;-146.67;100.00;57155.34;5081703;28;61753;-80
2022/04/26 04:17:22;;;;;;;;;12.50;10.50;;;;;-146.67;100.00;57155.34;5082830;28;62142;-79
2022/04/26 04:19:48;;;;;;;;;17.50;15.00;;;;;-146.67;100.00;57155.34;5084353;28;61742;-79
2022/04/26 04:22:14;;;;;;;;;18.00;15.75;;;;;-146.67;100.00;57155.34;5084399;27;63961;-79
2022/04/26 04:24:40;;;;;;;;;19.75;14.75;;;;;-146.67;100.00;57155.34;5084684;27;61747;-79
2022/04/26 04:27:05;;;;;;;;;21.25;16.50;;;;;-146.67;100.00;57155.34;5083475;28;62213;-79
2022/04/26 04:29:31;;;;;;;;;13.00;13.00;;;;;-146.67;100.00;57155.34;5082624;28;64862;-79
2022/04/26 04:31:56;;;;;;;;;23.00;15.25;;;;;-146.67;100.00;57155.34;5084728;28;61895;-79
2022/04/26 04:34:22;;;;;;;;;21.75;12.50;;;;;-146.67;100.00;57155.34;5084457;28;62071;-79
2022/04/26 04:36:49;;;;;;;;;19.75;16.00;;;;;-146.67;100.00;57155.34;5083149;28;62097;-79
2022/04/26 04:39:19;;;;;;;;;22.00;15.00;;;;;-146.67;100.00;57155.34;5082288;28;63806;-79
2022/04/26 04:41:48;;;;;;;;;19.75;15.75;;;;;-146.67;100.00;57155.34;5084384;27;61917;-79
2022/04/26 04:44:13;;;;;;;;;20.00;17.00;;;;;-146.67;100.00;57155.34;5084616;28;61715;-79
2022/04/26 04:46:38;;;;;;;;;25.50;16.75;;;;;-146.67;100.00;57155.34;5084278;27;62190;-79
2022/04/26 04:49:04;;;;;;;;;27.75;17.25;;;;;-146.67;100.00;57155.34;5083540;28;61983;-79
2022/04/26 04:51:30;;;;;;;;;17.75;15.50;;;;;-146.67;100.00;57155.34;5084185;28;61845;-79
2022/04/26 04:53:55;;;;;;;;;12.75;11.50;;;;;-146.67;100.00;57155.34;5084392;28;61865;-79
2022/04/26 04:56:21;;;;;;;;;22.25;15.75;;;;;-146.67;100.00;57155.34;5084493;28;61866;-79
2022/04/26 04:58:46;;;;;;;;;19.00;19.00;;;;;-146.67;100.00;57155.34;5082200;28;63596;-79
2022/04/26 05:01:12;;;;;;;;;21.75;15.75;;;;;-146.67;100.00;57155.34;5082945;28;61975;-79
2022/04/26 05:03:37;;;;;;;;;21.25;17.00;;;;;-146.67;100.00;57155.34;5083925;27;62063;-79
2022/04/26 05:06:03;;;;;;;;;23.25;19.00;;;;;-146.67;100.00;57155.34;5083960;28;61847;-80
2022/04/26 05:08:28;;;;;;;;;26.00;24.00;;;;;-146.67;100.00;57155.34;5098650;27;64915;-79
2022/04/26 05:10:54;;;;;;;;;24.50;18.75;;;;;-146.67;100.00;57155.34;5083986;27;61837;-81
2022/04/26 05:13:20;;;;;;;;;30.25;20.25;;;;;-146.67;100.00;57155.34;5083301;28;61823;-85
2022/04/26 05:15:45;;;;;;;;;26.50;21.25;;;;;-146.67;100.00;57155.34;5083756;27;62016;-83
2022/04/26 05:18:14;;;;;;;;;24.50;19.50;;;;;-146.67;100.00;57155.34;5095174;27;63760;-85
2022/04/26 05:20:39;;;;;;;;;23.25;21.75;;;;;-146.67;100.00;57155.34;5061950;28;61724;-85
2022/04/26 05:25:49;;;;;;;;;24.25;18.00;;;;;-146.67;100.00;57155.34;5083796;28;62127;-84
2022/04/26 05:28:14;;;;;;;;;19.75;17.75;;;;;-146.67;100.00;57155.34;5082638;27;62158;-83
2022/04/26 05:30:40;;;;;;;;;22.00;18.00;;;;;-146.67;100.00;57155.34;5078730;27;61898;-84
2022/04/26 05:33:05;;;;;;;;;23.25;17.50;;;;;-146.67;100.00;57155.34;5095771;27;61986;-81
2022/04/26 05:35:31;;;;;;;;;23.00;19.25;;;;;-146.67;100.00;57155.34;5068602;28;62051;-82
2022/04/26 05:37:56;;;;;;;;;28.00;24.75;;;;;-146.67;100.00;57155.34;5080697;27;62036;-78
2022/04/26 05:40:22;;;;;;;;;28.50;21.00;;;;;-146.67;100.00;57155.34;5082669;27;61920;-78
2022/04/26 05:42:47;;;;;;;;;30.75;18.25;;;;;-146.67;100.00;57155.34;5082861;28;61774;-77
2022/04/26 05:45:13;;;;;;;;;19.00;18.00;;;;;-146.67;100.00;57155.34;5083597;27;61956;-78
2022/04/26 05:47:42;;;;;;;;;25.25;21.25;;;;;-146.67;100.00;57155.34;5082319;28;62270;-79
2022/04/26 05:50:12;;;;;;;;;26.00;15.75;;;;;-146.67;100.00;57155.34;5082555;27;61799;-79
2022/04/26 05:52:38;;;;;;;;;34.00;20.00;;;;;-146.67;100.00;57155.34;5098570;27;61771;-79
2022/04/26 05:55:07;;;;;;;;;12.25;8.50;;;;;-146.67;100.00;57155.34;5082857;27;61807;-80
2022/04/26 05:57:36;;;;;;;;;24.00;19.25;;;;;-146.67;100.00;57155.34;5097950;27;63867;-81
2022/04/26 06:00:04;;;;;;;;;27.75;23.50;;;;;-146.67;100.00;57155.34;5082836;27;61945;-84
2022/04/26 06:02:29;;;;;;;;;21.75;16.00;;;;;-146.67;100.00;57155.34;5082713;27;62043;-82
2022/04/26 06:04:55;;;;;;;;;23.00;21.25;;;;;-146.67;100.00;57155.34;5082758;28;61961;-82
2022/04/26 06:07:20;;;;;;;;;22.00;21.25;;;;;-146.67;100.00;57155.34;5082477;27;61731;-83
2022/04/26 06:09:46;;;;;;;;;22.00;20.50;;;;;-146.67;100.00;57155.34;5082087;27;61802;-85
2022/04/26 06:12:12;;;;;;;;;26.50;19.00;;;;;-146.67;100.00;57155.34;5098494;27;61810;-84
2022/04/26 06:14:38;;;;;;;;;37.00;23.50;;;;;-146.67;100.00;57155.34;5082752;28;61698;-85
2022/04/26 06:17:03;;;;;;;;;35.25;26.75;;;;;-146.67;100.00;57155.34;5081702;28;62006;-85
2022/04/26 06:19:29;;;;;;;;;22.50;21.25;;;;;-146.67;100.00;57155.34;5098127;27;62140;-84
2022/04/26 06:21:54;;;;;;;;;26.25;21.25;;;;;-146.67;100.00;57155.34;5094641;27;61971;-81
2022/04/26 06:24:20;;;;;;;;;22.75;19.50;;;;;-146.67;100.00;57155.34;5102444;27;61980;-85
2022/04/26 06:26:45;;;;;;;;;21.00;19.00;;;;;-146.67;100.00;57155.34;5080867;28;61819;-82
2022/04/26 06:29:11;;;;;;;;;26.00;20.00;;;;;-146.67;100.00;57155.34;5096611;27;61960;-85
2022/04/26 06:31:36;;;;;;;;;29.25;21.75;;;;;-146.67;100.00;57155.34;5079840;27;61781;-85
2022/04/26 06:34:02;;;;;;;;;35.25;27.00;;;;;-146.67;100.00;57155.34;5080290;27;62208;-82
2022/04/26 06:36:27;;;;;;;;;33.75;30.75;;;;;-146.67;100.00;57155.34;5080031;28;63971;-78
2022/04/26 06:38:53;;;;;;;;;35.25;30.25;;;;;-146.67;100.00;57155.34;5081000;27;62074;-79
2022/04/26 06:41:19;;;;;;;;;43.25;30.50;;;;;-146.67;100.00;57155.34;5082608;28;61960;-87
2022/04/26 06:43:44;;;;;;;;;34.00;24.50;;;;;-146.67;100.00;57155.34;5083866;27;62164;-84
2022/04/26 06:46:10;;;;;;;;;31.25;24.75;;;;;-146.67;100.00;57155.34;5079127;28;63208;-84
2022/04/26 06:48:35;;;;;;;;;36.00;29.75;;;;;-146.67;100.00;57155.34;5080578;28;61732;-85
2022/04/26 06:51:09;;;;;;;;;35.25;29.75;;;;;-146.67;100.00;57155.34;5081132;28;62137;-80
2022/04/26 06:53:35;;;;;;;;;26.25;21.00;;;;;-146.67;100.00;57155.34;5097241;27;62042;-81
2022/04/26 06:56:00;;;;;;;;;28.00;22.50;;;;;-146.67;100.00;57155.34;5077923;28;61989;-80
2022/04/26 06:58:26;;;;;;;;;38.00;27.00;;;;;-146.67;100.00;57155.34;5080274;27;61928;-79
2022/04/26 07:00:51;;;;;;;;;31.50;26.25;;;;;-146.67;100.00;57155.34;5080443;27;62208;-80
2022/04/26 07:03:18;;;;;;;;;44.25;30.50;;;;;-146.67;100.00;57155.34;5081048;27;61967;-81
2022/04/26 07:05:44;;;;;;;;;49.25;38.50;;;;;-146.67;100.00;57155.34;5096905;27;63494;-78
2022/04/26 07:08:09;;;;;;;;;41.75;34.00;;;;;-146.67;100.00;57155.34;5081396;27;61805;-78
2022/04/26 07:10:37;;;;;;;;;46.50;29.25;;;;;-146.67;100.00;57155.34;5082050;28;61814;-79
2022/04/26 07:13:02;;;;;;;;;36.00;32.25;;;;;-146.67;100.00;57155.34;5093910;27;61781;-78
2022/04/26 07:15:28;;;;;;;;;53.50;38.00;;;;;-146.67;100.00;57155.34;5060550;28;61857;-77
2022/04/26 07:17:54;;;;;;;;;36.00;32.75;;;;;-146.67;100.00;57155.34;5081080;27;61951;-78
2022/04/26 07:20:19;;;;;;;;;41.50;32.25;;;;;-146.67;100.00;57155.34;5080869;27;62047;-79
2022/04/26 07:22:45;;;;;;;;;54.75;33.75;;;;;-146.67;100.00;57155.34;5097401;27;61876;-78
2022/04/26 07:25:10;;;;;;;;;53.00;35.25;;;;;-146.67;100.00;57155.34;5095798;27;63469;-78
2022/04/26 07:27:36;;;;;;;;;55.75;36.25;;;;;-146.67;100.00;57155.34;5079269;28;61838;-78
2022/04/26 07:30:03;;;;;;;;;41.75;33.00;;;;;-146.67;100.00;57155.34;5078394;28;62195;-80
2022/04/26 07:35:12;;;;;;;;;44.25;37.25;;;;;-146.67;100.00;57155.34;5077526;28;61767;-80
2022/04/26 07:37:39;;;;;;;;;42.50;35.75;;;;;-146.67;100.00;57155.34;5075493;28;62212;-79
2022/04/26 07:40:06;;;;;;;;;43.00;32.00;;;;;-146.67;100.00;57155.34;5081190;27;61868;-80
2022/04/26 07:42:31;;;;;;;;;47.50;36.75;;;;;-146.67;100.00;57155.34;5081608;28;61873;-82
2022/04/26 07:44:57;;;;;;;;;46.75;36.50;;;;;-146.67;100.00;57155.34;5074200;28;64055;-82
2022/04/26 07:47:24;;;;;;;;;38.50;31.00;;;;;-146.67;100.00;57155.34;5094015;27;62199;-82
2022/04/26 07:49:52;;;;;;;;;50.75;37.50;;;;;-146.67;100.00;57155.34;5072950;27;61774;-81
2022/04/26 07:52:18;;;;;;;;;34.50;25.75;;;;;-146.67;100.00;57155.34;5079873;28;62185;-82
2022/04/26 07:54:45;;;;;;;;;40.25;32.25;;;;;-146.67;100.00;57155.34;5080258;28;62007;-82
2022/04/26 07:57:11;;;;;;;;;37.75;31.25;;;;;-146.67;100.00;57155.34;5082442;27;61971;-85
2022/04/26 07:59:37;;;;;;;;;44.50;35.50;;;;;-146.67;100.00;57155.34;5099523;27;61975;-82
2022/04/26 08:02:06;;;;;;;;;45.50;34.75;;;;;-146.67;100.00;57155.34;5082731;28;61976;-82
2022/04/26 08:04:31;;;;;;;;;45.50;32.25;;;;;-146.67;100.00;57155.34;5082175;28;63854;-82
2022/04/26 08:06:57;;;;;;;;;38.50;32.50;;;;;-146.67;100.00;57155.34;5084085;28;61817;-82
2022/04/26 08:09:22;;;;;;;;;41.00;28.75;;;;;-146.67;100.00;57155.34;5082146;28;62564;-82
2022/04/26 08:11:49;;;;;;;;;40.25;33.00;;;;;-146.67;100.00;57155.34;5084066;27;62006;-82
2022/04/26 08:14:15;;;;;;;;;36.50;31.00;;;;;-146.67;100.00;57155.34;5081835;28;63983;-82
2022/04/26 08:16:41;;;;;;;;;35.00;29.50;;;;;-146.67;100.00;57155.34;5085377;28;62063;-82
2022/04/26 08:19:08;;;;;;;;;34.25;28.25;;;;;-146.67;100.00;57155.34;5083556;28;61993;-82
2022/04/26 08:21:35;;;;;;;;;48.50;32.00;;;;;-146.67;100.00;57155.34;5082506;27;61776;-82
2022/04/26 08:29:28;;;;;;;;;30.25;26.25;;;;;-146.67;100.00;57155.34;5083824;28;61968;-82
2022/04/26 08:31:55;;;;;;;;;36.50;26.75;;;;;-146.67;100.00;57155.34;5082036;28;61852;-83
2022/04/26 08:34:21;;;;;;;;;23.75;21.00;;;;;-146.67;100.00;57155.34;5078879;28;63475;-87
2022/04/26 08:36:47;;;;;;;;;35.00;28.00;;;;;-146.67;100.00;57155.34;5096264;27;61838;-89
2022/04/26 08:39:13;;;;;;;;;36.00;25.00;;;;;-146.67;100.00;57155.34;5082116;28;61798;-80
2022/04/26 08:41:38;;;;;;;;;33.25;28.25;;;;;-146.67;100.00;57155.34;5082472;27;61741;-81
2022/04/26 08:44:11;;;;;;;;;48.25;28.00;;;;;-146.67;100.00;57155.34;5081957;27;62544;-80
2022/04/26 08:52:08;;;;;;;;;34.75;26.50;;;;;-146.67;100.00;57155.34;5084451;28;62034;-80
2022/04/26 08:54:35;;;;;;;;;42.00;32.25;;;;;-146.67;100.00;57155.34;5082294;28;61929;-79
2022/04/26 08:57:01;;;;;;;;;40.25;28.00;;;;;-146.67;100.00;57155.34;5082670;27;62106;-81
2022/04/26 08:59:27;;;;;;;;;41.00;28.25;;;;;-146.67;100.00;57155.34;5082178;27;62159;-81
2022/04/26 09:02:16;;;;;;;;;37.75;29.50;;;;;-146.67;100.00;57155.34;5082324;28;63249;-79
2022/04/26 09:04:45;;;;;;;;;41.00;29.00;;;;;-146.67;100.00;57155.34;5080908;28;62053;-81
2022/04/26 09:07:26;;;;;;;;;45.25;31.75;;;;;-146.67;100.00;57155.34;5083449;27;61786;-81
2022/04/26 09:10:12;;;;;;;;;32.75;26.75;;;;;-146.67;100.00;57155.34;5063351;28;62310;-82
2022/04/26 09:12:59;;;;;;;;;31.25;21.75;;;;;-146.67;100.00;57155.34;5079110;28;62134;-82
2022/04/26 09:15:54;;;;;;;;;35.50;25.75;;;;;-146.67;100.00;57155.34;5078266;28;64768;-81
2022/04/26 09:18:27;;;;;;;;;38.50;30.50;;;;;-146.67;100.00;57155.34;5070459;28;61820;-82
2022/04/26 09:21:05;;;;;;;;;35.25;26.00;;;;;-146.67;100.00;57155.34;5083097;28;61848;-83
2022/04/26 09:23:32;;;;;;;;;38.50;29.50;;;;;-146.67;100.00;57155.34;5081733;27;61948;-82
2022/04/26 09:26:08;;;;;;;;;39.00;28.50;;;;;-146.67;100.00;57155.34;5098353;27;64114;-82
2022/04/26 09:28:38;;;;;;;;;38.00;25.75;;;;;-146.67;100.00;57155.34;5080658;28;61838;-82
2022/04/26 09:31:25;;;;;;;;;36.00;28.75;;;;;-146.67;100.00;57155.34;5083088;28;61909;-84
2022/04/26 09:34:04;;;;;;;;;33.25;25.00;;;;;-146.67;100.00;57155.34;5081559;27;61838;-83
2022/04/26 09:36:35;;;;;;;;;35.50;28.50;;;;;-146.67;100.00;57155.34;5097242;27;63820;-82
2022/04/26 09:39:09;;;;;;;;;37.75;24.25;;;;;-146.67;100.00;57155.34;5081394;27;61987;-83
2022/04/26 09:41:36;;;;;;;;;37.00;29.25;;;;;-146.67;100.00;57155.34;5081518;28;62071;-83
2022/04/26 09:44:05;;;;;;;;;41.75;33.50;;;;;-146.67;100.00;57155.34;5097413;27;62244;-83
2022/04/26 09:47:02;;;;;;;;;32.25;25.25;;;;;-146.67;100.00;57155.34;5079383;28;63807;-82
2022/04/26 09:49:37;;;;;;;;;45.25;27.50;;;;;-146.67;100.00;57155.34;5080502;27;61667;-83
2022/04/26 09:52:03;;;;;;;;;33.75;27.75;;;;;-146.67;100.00;57155.34;5081220;27;61869;-82
2022/04/26 09:54:32;;;;;;;;;37.25;32.25;;;;;-146.67;100.00;57155.34;5091080;27;62238;-83
2022/04/26 09:56:59;;;;;;;;;35.00;23.25;;;;;-146.67;100.00;57155.34;5096386;27;63273;-83
2022/04/26 09:59:42;;;;;;;;;32.00;25.25;;;;;-146.67;100.00;57155.34;5081323;28;61903;-83
2022/04/26 10:02:13;;;;;;;;;39.75;28.50;;;;;-146.67;100.00;57155.34;5080072;28;62097;-84
2022/04/26 10:04:49;;;;;;;;;34.00;25.25;;;;;-146.67;100.00;57155.34;5094578;27;62123;-84
2022/04/26 10:07:19;;;;;;;;;25.25;21.50;;;;;-146.67;100.00;57155.34;5078787;27;62021;-82
2022/04/26 10:09:46;;;;;;;;;35.00;28.75;;;;;-146.67;100.00;57155.34;5079322;28;62001;-82
2022/04/26 10:12:12;;;;;;;;;33.75;27.75;;;;;-146.67;100.00;57155.34;5081109;28;61927;-82
2022/04/26 10:14:38;;;;;;;;;28.25;27.25;;;;;-146.67;100.00;57155.34;5081899;28;61665;-81
2022/04/26 10:17:04;;;;;;;;;31.25;25.75;;;;;-146.67;100.00;57155.34;5082280;27;61705;-83
2022/04/26 10:19:41;;;;;;;;;44.00;31.00;;;;;-146.67;100.00;57155.34;5082423;28;61998;-83
2022/04/26 10:22:08;;;;;;;;;34.75;26.50;;;;;-146.67;100.00;57155.34;5082293;27;61857;-82
2022/04/26 10:24:34;;;;;;;;;39.50;27.75;;;;;-146.67;100.00;57155.34;5081806;28;62018;-83
2022/04/26 10:27:22;;;;;;;;;33.25;20.75;;;;;-146.67;100.00;57155.34;5082290;28;61931;-83
2022/04/26 10:29:48;;;;;;;;;37.50;28.75;;;;;-146.67;100.00;57155.34;5084412;28;61706;-82
2022/04/26 10:32:38;;;;;;;;;42.25;30.50;;;;;-146.67;100.00;57155.34;5083011;28;61688;-83
2022/04/26 10:35:24;;;;;;;;;32.25;25.50;;;;;-146.67;100.00;57155.34;5082583;27;61967;-83
2022/04/26 10:38:13;;;;;;;;;29.75;25.50;;;;;-146.67;100.00;57155.34;5080326;28;62118;-83
2022/04/26 10:41:03;;;;;;;;;29.25;24.50;;;;;-146.67;100.00;57155.34;5097996;27;62300;-83
2022/04/26 10:43:29;;;;;;;;;38.00;32.25;;;;;-146.67;100.00;57155.34;5082393;28;61914;-84
2022/04/26 10:46:14;;;;;;;;;42.00;30.75;;;;;-146.67;100.00;57155.34;5082713;27;61862;-83
2022/04/26 10:48:39;;;;;;;;;38.25;27.25;;;;;-146.67;100.00;57155.34;5081613;28;62777;-83
2022/04/26 10:51:39;;;;;;;;;28.00;25.25;;;;;-146.67;100.00;57155.34;5082331;27;61992;-83
2022/04/26 10:54:05;;;;;;;;;34.50;28.25;;;;;-146.67;100.00;57155.34;5082229;28;62049;-82
2022/04/26 10:56:31;;;;;;;;;55.25;36.50;;;;;-146.67;100.00;57155.34;5082397;28;61893;-83
2022/04/26 10:58:57;;;;;;;;;34.00;28.00;;;;;-146.67;100.00;57155.34;5080134;28;63659;-83
2022/04/26 11:01:24;;;;;;;;;42.50;28.00;;;;;-146.67;100.00;57155.34;5082332;28;62392;-83
2022/04/26 11:03:55;;;;;;;;;36.50;31.00;;;;;-146.67;100.00;57155.34;5080603;28;61822;-83
2022/04/26 11:06:33;;;;;;;;;39.00;26.75;;;;;-146.67;100.00;57155.34;5097548;27;62077;-83
2022/04/26 11:09:15;;;;;;;;;33.50;26.75;;;;;-146.67;100.00;57155.34;5080876;27;61796;-83
2022/04/26 11:11:54;;;;;;;;;25.50;21.75;;;;;-146.67;100.00;57155.34;5081978;28;62048;-83
2022/04/26 11:14:20;;;;;;;;;28.50;22.50;;;;;-146.67;100.00;57155.34;5082117;28;61818;-83
2022/04/26 11:17:06;;;;;;;;;26.25;20.50;;;;;-146.67;100.00;57155.34;5081921;28;61871;-83
2022/04/26 11:19:35;;;;;;;;;34.25;29.50;;;;;-146.67;100.00;57155.34;5081277;28;62610;-83
2022/04/26 11:22:09;;;;;;;;;26.75;25.50;;;;;-146.67;100.00;57155.34;5081690;27;61857;-83
2022/04/26 11:30:08;;;;;;;;;41.50;27.00;;;;;-146.67;100.00;57155.34;5084833;28;61901;-82
2022/04/26 11:32:42;;;;;;;;;25.50;21.75;;;;;-146.67;100.00;57155.34;5085027;28;61915;-83
2022/04/26 11:35:13;;;;;;;;;31.50;28.25;;;;;-146.67;100.00;57155.34;5085388;27;61849;-83
2022/04/26 11:37:45;;;;;;;;;22.50;22.00;;;;;-146.67;100.00;57155.34;5085608;27;61968;-82
2022/04/26 11:40:20;;;;;;;;;29.75;24.75;;;;;-146.67;100.00;57155.34;5084505;27;63569;-83
2022/04/26 11:42:45;;;;;;;;;32.00;23.50;;;;;-146.67;100.00;57155.34;5085177;27;61724;-83
2022/04/26 11:45:11;;;;;;;;;34.00;24.25;;;;;-146.67;100.00;57155.34;5085373;27;61937;-83
2022/04/26 11:47:49;;;;;;;;;25.75;16.75;;;;;-146.67;100.00;57155.34;5085366;27;61699;-83
2022/04/26 11:50:27;;;;;;;;;25.75;21.50;;;;;-146.67;100.00;57155.34;5082850;27;63756;-83
2022/04/26 11:52:59;;;;;;;;;27.00;21.25;;;;;-146.67;100.00;57155.34;5084425;27;61754;-82
2022/04/26 11:55:28;;;;;;;;;17.75;17.75;;;;;-146.67;100.00;57155.34;5085137;28;61762;-83
2022/04/26 11:58:05;;;;;;;;;20.25;17.00;;;;;-146.67;100.00;57155.34;5085130;27;61785;-83
2022/04/26 12:00:30;;;;;;;;;17.25;14.75;;;;;-146.67;100.00;57155.34;5084134;28;61941;-82
2022/04/26 12:02:56;;;;;;;;;23.75;17.75;;;;;-146.67;100.00;57155.34;5084458;28;61771;-83
2022/04/26 12:05:22;;;;;;;;;21.25;19.75;;;;;-146.67;100.00;57155.34;5083573;28;61930;-83
2022/04/26 12:07:49;;;;;;;;;24.00;16.00;;;;;-146.67;100.00;57155.34;5117250;27;61907;-82
2022/04/26 12:10:29;;;;;;;;;23.00;20.50;;;;;-146.67;100.00;57155.34;5084425;27;61955;-83
2022/04/26 12:13:05;;;;;;;;;20.25;18.00;;;;;-146.67;100.00;57155.34;5117131;27;61862;-84
2022/04/26 12:15:35;;;;;;;;;25.25;19.25;;;;;-146.67;100.00;57155.34;5083285;28;61749;-82
2022/04/26 12:18:13;;;;;;;;;28.50;19.75;;;;;-146.67;100.00;57155.34;5083436;28;62077;-83
2022/04/26 12:20:56;;;;;;;;;22.00;19.75;;;;;-146.67;100.00;57155.34;5083967;27;62415;-82
2022/04/26 12:23:23;;;;;;;;;18.00;17.50;;;;;-146.67;100.00;57155.34;5083781;27;61864;-82
2022/04/26 12:26:03;;;;;;;;;19.00;17.50;;;;;-146.67;100.00;57155.34;5082717;27;61890;-82
2022/04/26 12:28:29;;;;;;;;;23.00;19.25;;;;;-146.67;100.00;57155.34;5083033;28;62081;-82
2022/04/26 12:30:55;;;;;;;;;21.50;18.75;;;;;-146.67;100.00;57155.34;5082312;27;61878;-82
2022/04/26 12:33:29;;;;;;;;;27.75;17.00;;;;;-146.67;100.00;57155.34;5082470;27;61862;-82
2022/04/26 12:36:00;;;;;;;;;21.00;15.25;;;;;-146.67;100.00;57155.34;5083165;28;61877;-82
2022/04/26 12:38:26;;;;;;;;;20.50;16.75;;;;;-146.67;100.00;57155.34;5081682;27;62090;-82
2022/04/26 12:41:03;;;;;;;;;19.75;16.75;;;;;-146.67;100.00;57155.34;5082923;28;62039;-82
2022/04/26 12:43:31;;;;;;;;;20.50;15.50;;;;;-146.67;100.00;57155.34;5082274;28;61973;-82
2022/04/26 12:46:04;;;;;;;;;17.33;13.67;;;;;-146.67;100.00;57155.34;5080274;28;61770;-82
2022/04/26 12:51:22;;;;;;;;;15.00;12.00;;;;;-146.67;100.00;57155.34;5082212;28;62323;-83
2022/04/26 12:53:52;;;;;;;;;19.00;13.67;;;;;-146.67;100.00;57155.34;5099423;27;61777;-83
2022/04/26 12:56:19;;;;;;;;;16.33;12.33;;;;;-146.67;100.00;57155.34;5083688;28;62699;-83
2022/04/26 12:58:47;;;;;;;;;21.67;16.00;;;;;-146.67;100.00;57155.34;5099896;27;61829;-83
2022/04/26 13:01:14;;;;;;;;;13.67;12.00;;;;;-146.67;100.00;57155.34;5082786;28;61918;-83
2022/04/26 13:03:41;;;;;;;;;15.33;14.33;;;;;-146.67;100.00;57155.34;5098880;27;61898;-83
2022/04/26 13:06:15;;;;;;;;;15.00;11.67;;;;;-146.67;100.00;57155.34;5083152;27;62057;-83
2022/04/26 13:08:44;;;;;;;;;14.67;13.00;;;;;-146.67;100.00;57155.34;5083454;27;61821;-83
2022/04/26 13:11:10;;;;;;;;;10.67;8.67;;;;;-146.67;100.00;57155.34;5082340;27;62010;-83
2022/04/26 13:13:39;;;;;;;;;13.67;12.00;;;;;-146.67;100.00;57155.34;5081627;28;62048;-84
2022/04/26 13:16:05;;;;;;;;;13.67;13.00;;;;;-146.67;100.00;57155.34;5077966;28;61871;-83
2022/04/26 13:18:30;;;;;;;;;20.00;12.33;;;;;-146.67;100.00;57155.34;5063489;28;61979;-83
2022/04/26 13:20:57;;;;;;;;;13.33;11.00;;;;;-146.67;100.00;57155.34;5095060;27;62540;-83
2022/04/26 13:23:24;;;;;;;;;15.33;11.00;;;;;-146.67;100.00;57155.34;5080900;27;62132;-84
2022/04/26 13:25:50;;;;;;;;;16.33;13.33;;;;;-146.67;100.00;57155.34;5083598;27;61940;-84
2022/04/26 13:28:15;;;;;;;;;17.00;11.33;;;;;-146.67;100.00;57155.34;5082709;27;61762;-84
2022/04/26 13:30:41;;;;;;;;;14.67;14.33;;;;;-146.67;100.00;57155.34;5098661;27;63692;-84
2022/04/26 13:33:07;;;;;;;;;7.67;7.67;;;;;-146.67;100.00;57155.34;5082508;28;62071;-84
2022/04/26 13:35:33;;;;;;;;;11.00;9.33;;;;;-146.67;100.00;57155.34;5079275;27;61954;-84
2022/04/26 13:37:59;;;;;;;;;10.67;9.00;;;;;-146.67;100.00;57155.34;5076928;28;61765;-83
2022/04/26 13:40:26;;;;;;;;;10.33;10.33;;;;;-146.67;100.00;57155.34;5098329;27;63955;-83
2022/04/26 13:42:51;;;;;;;;;13.67;11.00;;;;;-146.67;100.00;57155.34;5082612;27;61975;-83
2022/04/26 13:45:17;;;;;;;;;11.33;8.67;;;;;-146.67;100.00;57155.34;5082824;28;61773;-82
2022/04/26 13:47:45;;;;;;;;;10.00;9.33;;;;;-146.67;100.00;57155.34;5098283;27;61859;-83
2022/04/26 13:50:11;;;;;;;;;12.00;10.00;;;;;-146.67;100.00;57155.34;5082010;27;61817;-83
2022/04/26 13:52:38;;;;;;;;;12.00;12.00;;;;;-146.67;100.00;57155.34;5082942;27;61829;-84
2022/04/26 13:55:04;;;;;;;;;10.00;10.00;;;;;-146.67;100.00;57155.34;5082513;28;62099;-84
2022/04/26 13:57:29;;;;;;;;;13.00;11.33;;;;;-146.67;100.00;57155.34;5097972;27;61771;-84
2022/04/26 13:59:55;;;;;;;;;11.00;10.00;;;;;-146.67;100.00;57155.34;5081298;27;62426;-84
2022/04/26 14:02:20;;;;;;;;;11.33;8.00;;;;;-146.67;100.00;57155.34;5082680;27;62005;-84
2022/04/26 14:04:49;;;;;;;;;13.33;10.00;;;;;-146.67;100.00;57155.34;5083093;27;61827;-84
2022/04/26 14:07:15;;;;;;;;;11.33;8.00;;;;;-146.67;100.00;57155.34;5083103;27;62099;-83
2022/04/26 14:09:41;;;;;;;;;10.33;8.00;;;;;-146.67;100.00;57155.34;5081994;27;61750;-84
2022/04/26 14:12:08;;;;;;;;;9.00;9.00;;;;;-146.67;100.00;57155.34;5082463;27;61694;-83
2022/04/26 14:22:47;;;;;;;;;12.67;9.67;;;;;-146.67;100.00;57155.34;5082166;27;61711;-81
2022/04/26 14:25:13;;;;;;;;;8.00;8.00;;;;;-146.67;100.00;57155.34;5081394;27;62131;-84
2022/04/26 14:27:42;;;;;;;;;8.67;8.33;;;;;-146.67;100.00;57155.34;5094744;27;61896;-84
2022/04/26 14:30:10;;;;;;;;;13.33;9.33;;;;;-146.67;100.00;57155.34;5093711;27;63691;-84
2022/04/26 14:32:35;;;;;;;;;8.67;8.67;;;;;-146.67;100.00;57155.34;5070012;28;62003;-81
2022/04/26 14:35:01;;;;;;;;;11.33;9.00;;;;;-146.67;100.00;57155.34;5075656;27;61934;-80
2022/04/26 14:37:27;;;;;;;;;9.00;9.00;;;;;-146.67;100.00;57155.34;5081590;28;61885;-80
2022/04/26 14:39:53;;;;;;;;;9.67;7.00;;;;;-146.67;100.00;57155.34;5074434;28;63316;-78
2022/04/26 14:42:18;;;;;;;;;8.00;8.00;;;;;-146.67;100.00;57155.34;5091537;27;61923;-78
2022/04/26 14:44:48;;;;;;;;;10.67;9.67;;;;;-146.67;100.00;57155.34;5081725;27;61836;-78
2022/04/26 14:47:14;;;;;;;;;9.00;8.00;;;;;-146.67;100.00;57155.34;5075154;27;61869;-79
2022/04/26 14:49:40;;;;;;;;;9.33;8.67;;;;;-146.67;100.00;57155.34;5065681;28;62912;-77
2022/04/26 14:52:08;;;;;;;;;8.00;6.67;;;;;-146.67;100.00;57155.34;5080463;28;62005;-80
2022/04/26 14:54:35;;;;;;;;;10.67;9.67;;;;;-146.67;100.00;57155.34;5081429;27;62020;-80
2022/04/26 14:57:01;;;;;;;;;8.00;7.67;;;;;-146.67;100.00;57155.34;5082444;27;61979;-79
2022/04/26 14:59:28;;;;;;;;;9.00;7.67;;;;;-146.67;100.00;57155.34;5084914;28;61869;-80
2022/04/26 15:01:54;;;;;;;;;7.67;6.00;;;;;-146.67;100.00;57155.34;5065202;27;61965;-80
2022/04/26 15:04:21;;;;;;;;;8.00;6.67;;;;;-146.67;100.00;57155.34;5078139;28;62326;-81
2022/04/26 15:06:48;;;;;;;;;7.67;7.33;;;;;-146.67;100.00;57155.34;5094393;27;61820;-80
2022/04/26 15:17:29;;;;;;;;;8.00;6.67;;;;;-146.67;100.00;57155.34;5081354;28;62112;-80
2022/04/26 15:19:55;;;;;;;;;6.00;6.00;;;;;-146.67;100.00;57155.34;5080910;27;61961;-81